Time;durP1;ratioP1;P1;durP2;ratioP2;P2;SDS_P1;SDS_P2;PMS_P1;PMS_P2;Temp;Humidity;BMP_temperature;BMP_pressure;BME280_temperature;BME280_humidity;BME280_pressure;Samples;Min_cycle;Max_cycle;Signal;HPM_P1;HPM_P2
2021/08/10 00:00:35;;;;;;;4.20;3.80;;;;;;;;;;4988796;28;24460;-50
2021/08/10 00:03:00;;;;;;;4.00;3.70;;;;;;;;;;4989633;28;24453;-50
2021/08/10 00:05:25;;;;;;;4.00;3.60;;;;;;;;;;4989859;28;24429;-49
2021/08/10 00:07:50;;;;;;;3.70;3.40;;;;;;;;;;4989983;28;24460;-49
2021/08/10 00:10:15;;;;;;;3.50;3.30;;;;;;;;;;4988825;28;24875;-51
2021/08/10 00:12:40;;;;;;;3.40;3.20;;;;;;;;;;4989004;28;24827;-50
2021/08/10 00:15:07;;;;;;;3.70;3.40;;;;;;;;;;4987743;28;24520;-51
2021/08/10 00:17:32;;;;;;;4.00;3.60;;;;;;;;;;4989835;28;24452;-50
2021/08/10 00:19:57;;;;;;;4.20;3.90;;;;;;;;;;4982993;28;25411;-50
2021/08/10 00:22:22;;;;;;;3.50;3.30;;;;;;;;;;4988425;28;24448;-50
2021/08/10 00:24:47;;;;;;;3.60;3.30;;;;;;;;;;4988016;28;24428;-51
2021/08/10 00:27:13;;;;;;;3.70;3.40;;;;;;;;;;4988049;28;24421;-51
2021/08/10 00:29:39;;;;;;;3.47;3.20;;;;;;;;;;4987362;28;24436;-51
2021/08/10 00:32:04;;;;;;;3.40;3.20;;;;;;;;;;4989308;28;25022;-51
2021/08/10 00:34:29;;;;;;;3.60;3.30;;;;;;;;;;4985021;28;24409;-52
2021/08/10 00:36:54;;;;;;;3.27;3.07;;;;;;;;;;4981412;28;25002;-51
2021/08/10 00:39:20;;;;;;;3.97;3.60;;;;;;;;;;4988062;28;24511;-52
2021/08/10 00:41:45;;;;;;;3.30;3.10;;;;;;;;;;4989142;28;25157;-51
2021/08/10 00:44:10;;;;;;;3.90;3.60;;;;;;;;;;4988484;28;24959;-50
2021/08/10 00:46:35;;;;;;;3.97;3.67;;;;;;;;;;4989006;28;24548;-50
2021/08/10 00:49:00;;;;;;;4.00;3.70;;;;;;;;;;4988245;28;24405;-51
2021/08/10 00:51:26;;;;;;;3.45;3.20;;;;;;;;;;4987944;28;25086;-51
2021/08/10 00:53:51;;;;;;;4.10;3.70;;;;;;;;;;4988512;28;24524;-50
2021/08/10 00:56:16;;;;;;;3.60;3.30;;;;;;;;;;4988554;28;24936;-52
2021/08/10 00:58:41;;;;;;;3.80;3.50;;;;;;;;;;4987952;28;24425;-51
2021/08/10 01:01:07;;;;;;;3.75;3.45;;;;;;;;;;4988200;28;24500;-50
2021/08/10 01:03:32;;;;;;;3.73;3.43;;;;;;;;;;4988825;28;24432;-50
2021/08/10 01:05:57;;;;;;;3.93;3.63;;;;;;;;;;4988280;28;24440;-51
2021/08/10 01:08:22;;;;;;;3.53;3.30;;;;;;;;;;4988165;28;24401;-50
2021/08/10 01:10:52;;;;;;;4.28;3.70;;;;;;;;;;4987165;28;25025;-52
2021/08/10 01:13:34;;;;;;;3.70;3.40;;;;;;;;;;4988089;28;24420;-52
2021/08/10 01:16:03;;;;;;;3.50;3.30;;;;;;;;;;4988016;28;24405;-51
2021/08/10 01:18:34;;;;;;;3.80;3.50;;;;;;;;;;4988271;28;24416;-50
2021/08/10 01:21:18;;;;;;;4.07;3.67;;;;;;;;;;4979860;28;24401;-50
2021/08/10 01:23:45;;;;;;;4.18;3.83;;;;;;;;;;4981624;28;24405;-50
2021/08/10 01:26:17;;;;;;;3.80;3.50;;;;;;;;;;4988379;28;24408;-50
2021/08/10 01:28:46;;;;;;;4.40;3.30;;;;;;;;;;4985874;28;24440;-50
2021/08/10 01:31:14;;;;;;;3.80;3.50;;;;;;;;;;4988099;28;24552;-51
2021/08/10 01:33:41;;;;;;;3.97;3.67;;;;;;;;;;4987625;28;24401;-49
2021/08/10 01:36:07;;;;;;;3.20;3.00;;;;;;;;;;4987653;28;24898;-49
2021/08/10 01:38:33;;;;;;;3.50;3.30;;;;;;;;;;4983035;28;24439;-50
2021/08/10 01:40:59;;;;;;;3.60;3.30;;;;;;;;;;4984936;28;24795;-49
2021/08/10 01:43:25;;;;;;;3.60;3.40;;;;;;;;;;4986445;28;24497;-50
2021/08/10 01:45:50;;;;;;;3.30;3.10;;;;;;;;;;4987829;28;24412;-51
2021/08/10 01:48:17;;;;;;;3.60;3.30;;;;;;;;;;4987410;28;24411;-51
2021/08/10 01:50:44;;;;;;;3.17;2.97;;;;;;;;;;4987125;28;24811;-50
2021/08/10 01:53:09;;;;;;;3.15;2.92;;;;;;;;;;4987560;28;24999;-51
2021/08/10 01:55:35;;;;;;;3.60;3.40;;;;;;;;;;4987733;28;24420;-51
2021/08/10 01:58:01;;;;;;;3.50;3.20;;;;;;;;;;4987210;28;24409;-51
2021/08/10 02:00:26;;;;;;;3.33;3.13;;;;;;;;;;4985138;28;24424;-51
2021/08/10 02:02:52;;;;;;;3.50;3.20;;;;;;;;;;4984522;28;24587;-51
2021/08/10 02:05:19;;;;;;;3.50;3.20;;;;;;;;;;4986533;28;24990;-49
2021/08/10 02:07:44;;;;;;;3.30;3.10;;;;;;;;;;4986337;28;24413;-50
2021/08/10 02:10:09;;;;;;;3.70;3.43;;;;;;;;;;4987099;28;24511;-50
2021/08/10 02:12:36;;;;;;;3.30;3.10;;;;;;;;;;4986489;28;24499;-51
2021/08/10 02:15:01;;;;;;;3.20;3.00;;;;;;;;;;4987320;28;24990;-50
2021/08/10 02:17:26;;;;;;;3.40;3.10;;;;;;;;;;4986573;28;24479;-50
2021/08/10 02:19:52;;;;;;;3.90;3.60;;;;;;;;;;4987390;28;24420;-49
2021/08/10 02:22:17;;;;;;;4.20;3.90;;;;;;;;;;4989332;28;24429;-50
2021/08/10 02:24:45;;;;;;;3.70;3.30;;;;;;;;;;4991484;28;24471;-50
2021/08/10 02:27:13;;;;;;;3.28;3.08;;;;;;;;;;4989865;28;24420;-50
2021/08/10 02:29:39;;;;;;;3.73;3.43;;;;;;;;;;4987725;28;25096;-50
2021/08/10 02:32:05;;;;;;;3.88;3.58;;;;;;;;;;4990536;28;25072;-50
2021/08/10 02:34:30;;;;;;;3.50;3.30;;;;;;;;;;4990419;28;24443;-50
2021/08/10 02:36:57;;;;;;;4.30;3.90;;;;;;;;;;4990922;28;24977;-50
2021/08/10 02:39:23;;;;;;;3.20;3.00;;;;;;;;;;4990571;28;24468;-50
2021/08/10 02:41:49;;;;;;;3.58;3.38;;;;;;;;;;4990992;28;24819;-50
2021/08/10 02:44:14;;;;;;;3.60;3.40;;;;;;;;;;4990775;28;24413;-49
2021/08/10 02:46:39;;;;;;;4.40;4.00;;;;;;;;;;4990053;28;24500;-50
2021/08/10 02:49:07;;;;;;;3.90;3.60;;;;;;;;;;4988765;28;24421;-51
2021/08/10 02:51:32;;;;;;;3.88;3.47;;;;;;;;;;4989010;28;24447;-51
2021/08/10 02:53:57;;;;;;;3.83;3.53;;;;;;;;;;4990781;28;24571;-49
2021/08/10 02:56:23;;;;;;;3.90;3.60;;;;;;;;;;4990169;28;24475;-51
2021/08/10 02:59:05;;;;;;;3.50;3.20;;;;;;;;;;4989571;28;25021;-51
2021/08/10 03:01:33;;;;;;;3.60;3.40;;;;;;;;;;4989362;28;24828;-51
2021/08/10 03:04:00;;;;;;;3.80;3.50;;;;;;;;;;4982780;28;24528;-51
2021/08/10 03:06:25;;;;;;;3.53;3.33;;;;;;;;;;4985419;28;24413;-51
2021/08/10 03:08:56;;;;;;;3.67;3.40;;;;;;;;;;4989508;28;25066;-51
2021/08/10 03:11:21;;;;;;;4.10;3.80;;;;;;;;;;4990353;28;25025;-51
2021/08/10 03:13:47;;;;;;;3.50;3.20;;;;;;;;;;4989965;28;24433;-51
2021/08/10 03:16:14;;;;;;;4.82;4.20;;;;;;;;;;4989891;28;24448;-50
2021/08/10 03:18:39;;;;;;;3.60;3.40;;;;;;;;;;4990548;28;24526;-49
2021/08/10 03:21:05;;;;;;;3.63;3.20;;;;;;;;;;4990525;28;24842;-51
2021/08/10 03:23:32;;;;;;;4.03;3.60;;;;;;;;;;4990991;28;24412;-50
2021/08/10 03:25:58;;;;;;;3.90;3.47;;;;;;;;;;4990896;28;24413;-50
2021/08/10 03:28:26;;;;;;;3.70;3.40;;;;;;;;;;4990106;28;24416;-50
2021/08/10 03:30:52;;;;;;;4.13;3.50;;;;;;;;;;4990018;28;24462;-51
2021/08/10 03:33:17;;;;;;;4.20;3.80;;;;;;;;;;4989578;28;25191;-49
2021/08/10 03:35:43;;;;;;;3.60;3.30;;;;;;;;;;4990342;28;24440;-50
2021/08/10 03:38:08;;;;;;;3.80;3.50;;;;;;;;;;4990645;28;24416;-50
2021/08/10 03:40:34;;;;;;;3.53;3.23;;;;;;;;;;4989711;28;24776;-50
2021/08/10 03:43:00;;;;;;;3.60;3.30;;;;;;;;;;4990023;28;24776;-50
2021/08/10 03:45:26;;;;;;;3.80;3.50;;;;;;;;;;4990510;28;24427;-50
2021/08/10 03:47:52;;;;;;;3.30;3.10;;;;;;;;;;4990471;28;24424;-50
2021/08/10 03:50:18;;;;;;;4.50;4.20;;;;;;;;;;4989653;28;24413;-50
2021/08/10 03:52:43;;;;;;;3.70;3.40;;;;;;;;;;4989943;28;24608;-50
2021/08/10 03:55:09;;;;;;;3.90;3.60;;;;;;;;;;4990070;28;24576;-50
2021/08/10 03:57:35;;;;;;;3.93;3.60;;;;;;;;;;4989451;28;24424;-51
2021/08/10 04:00:00;;;;;;;3.80;3.50;;;;;;;;;;4990383;28;24955;-50
2021/08/10 04:02:25;;;;;;;3.83;3.53;;;;;;;;;;4985225;28;24435;-50
2021/08/10 04:04:51;;;;;;;3.80;3.50;;;;;;;;;;4985273;28;24517;-51
2021/08/10 04:07:17;;;;;;;3.38;3.10;;;;;;;;;;4989307;28;24524;-51
2021/08/10 04:09:43;;;;;;;4.25;3.88;;;;;;;;;;4988441;28;24517;-51
2021/08/10 04:12:09;;;;;;;3.60;3.30;;;;;;;;;;4989257;28;24998;-50
2021/08/10 04:14:35;;;;;;;4.00;3.70;;;;;;;;;;4986492;28;24772;-51
2021/08/10 04:17:04;;;;;;;3.50;3.20;;;;;;;;;;4989056;28;24966;-51
2021/08/10 04:19:30;;;;;;;3.90;3.60;;;;;;;;;;4989290;28;24412;-50
2021/08/10 04:21:56;;;;;;;3.67;3.42;;;;;;;;;;4990046;28;24413;-51
2021/08/10 04:24:21;;;;;;;4.13;3.78;;;;;;;;;;4989166;28;24500;-51
2021/08/10 04:26:46;;;;;;;3.60;3.40;;;;;;;;;;4988892;28;24524;-51
2021/08/10 04:29:13;;;;;;;3.97;3.58;;;;;;;;;;4988743;28;24514;-51
2021/08/10 04:31:38;;;;;;;3.53;3.20;;;;;;;;;;4988743;28;24867;-51
2021/08/10 04:34:03;;;;;;;4.20;3.60;;;;;;;;;;4988945;28;24409;-51
2021/08/10 04:36:28;;;;;;;4.00;3.70;;;;;;;;;;4989084;28;24412;-51
2021/08/10 04:38:54;;;;;;;3.45;3.20;;;;;;;;;;4989257;28;24495;-51
2021/08/10 04:41:19;;;;;;;3.50;3.20;;;;;;;;;;4983034;28;24405;-51
2021/08/10 04:43:44;;;;;;;3.50;3.30;;;;;;;;;;4988009;28;24417;-52
2021/08/10 04:46:09;;;;;;;3.92;3.63;;;;;;;;;;4988994;28;24500;-51
2021/08/10 04:48:35;;;;;;;3.50;3.20;;;;;;;;;;4987933;28;25037;-51
2021/08/10 04:51:00;;;;;;;3.67;3.47;;;;;;;;;;4988484;28;24469;-51
2021/08/10 04:53:25;;;;;;;3.50;3.30;;;;;;;;;;4989060;28;24843;-51
2021/08/10 04:55:50;;;;;;;4.82;3.63;;;;;;;;;;4987740;28;24528;-51
2021/08/10 04:58:15;;;;;;;5.13;4.07;;;;;;;;;;4988757;28;24413;-49
2021/08/10 05:00:40;;;;;;;3.90;3.60;;;;;;;;;;4988311;28;24411;-49
2021/08/10 05:03:06;;;;;;;3.60;3.30;;;;;;;;;;4989062;28;24417;-50
2021/08/10 05:05:31;;;;;;;4.37;4.07;;;;;;;;;;4988225;28;24417;-50
2021/08/10 05:07:56;;;;;;;3.40;3.20;;;;;;;;;;4989225;28;24448;-50
2021/08/10 05:10:21;;;;;;;3.50;3.20;;;;;;;;;;4988335;28;24977;-50
2021/08/10 05:12:46;;;;;;;3.47;3.17;;;;;;;;;;4988461;28;24440;-50
2021/08/10 05:15:12;;;;;;;3.40;3.20;;;;;;;;;;4988224;28;25014;-51
2021/08/10 05:17:37;;;;;;;3.60;3.40;;;;;;;;;;4988379;28;25034;-50
2021/08/10 05:20:02;;;;;;;4.00;3.60;;;;;;;;;;4988429;28;24440;-50
2021/08/10 05:22:28;;;;;;;3.60;3.30;;;;;;;;;;4987600;28;24405;-50
2021/08/10 05:24:53;;;;;;;3.50;3.30;;;;;;;;;;4988811;28;24543;-50
2021/08/10 05:27:18;;;;;;;4.15;3.75;;;;;;;;;;4988268;28;24412;-51
2021/08/10 05:29:43;;;;;;;3.65;3.45;;;;;;;;;;4987778;28;24516;-52
2021/08/10 05:32:08;;;;;;;3.13;2.93;;;;;;;;;;4985682;28;24987;-52
2021/08/10 05:34:34;;;;;;;3.97;3.67;;;;;;;;;;4987667;28;24577;-51
2021/08/10 05:36:59;;;;;;;3.40;3.10;;;;;;;;;;4987811;28;24974;-51
2021/08/10 05:39:24;;;;;;;3.40;3.20;;;;;;;;;;4988734;28;24504;-52
2021/08/10 05:41:49;;;;;;;3.33;2.97;;;;;;;;;;4988570;28;24432;-52
2021/08/10 05:44:15;;;;;;;4.00;3.30;;;;;;;;;;4988186;28;24511;-50
2021/08/10 05:46:40;;;;;;;3.35;3.05;;;;;;;;;;4982747;28;24516;-50
2021/08/10 05:49:05;;;;;;;3.60;3.30;;;;;;;;;;4991276;28;25101;-51
2021/08/10 05:51:31;;;;;;;3.90;3.60;;;;;;;;;;4981645;28;24437;-50
2021/08/10 05:53:56;;;;;;;3.40;3.20;;;;;;;;;;4977100;28;24449;-51
2021/08/10 05:56:22;;;;;;;3.30;3.00;;;;;;;;;;4984330;28;24471;-51
2021/08/10 05:58:47;;;;;;;3.60;3.30;;;;;;;;;;4982448;28;24967;-51
2021/08/10 06:01:12;;;;;;;4.20;3.70;;;;;;;;;;4983963;28;24556;-51
2021/08/10 06:03:37;;;;;;;3.40;3.20;;;;;;;;;;4983650;28;24416;-51
2021/08/10 06:06:03;;;;;;;3.80;3.37;;;;;;;;;;4984792;28;24424;-51
2021/08/10 06:08:28;;;;;;;3.80;3.50;;;;;;;;;;4981796;28;25166;-51
2021/08/10 06:10:54;;;;;;;3.22;3.00;;;;;;;;;;4983210;28;24432;-52
2021/08/10 06:13:19;;;;;;;3.20;2.90;;;;;;;;;;4983200;28;24913;-50
2021/08/10 06:15:44;;;;;;;3.63;3.10;;;;;;;;;;4984204;28;24452;-51
2021/08/10 06:18:09;;;;;;;3.50;3.30;;;;;;;;;;4979985;28;25026;-51
2021/08/10 06:20:34;;;;;;;3.17;2.90;;;;;;;;;;4984322;28;24963;-51
2021/08/10 06:23:01;;;;;;;2.90;2.70;;;;;;;;;;4982639;28;24553;-52
2021/08/10 06:25:26;;;;;;;3.40;3.10;;;;;;;;;;4982847;28;24575;-50
2021/08/10 06:27:51;;;;;;;3.20;2.90;;;;;;;;;;4973829;28;25031;-52
2021/08/10 06:30:16;;;;;;;3.50;3.20;;;;;;;;;;4983455;28;24682;-51
2021/08/10 06:32:42;;;;;;;3.30;3.00;;;;;;;;;;4982460;28;24441;-52
2021/08/10 06:35:07;;;;;;;3.08;2.88;;;;;;;;;;4980430;28;25122;-51
2021/08/10 06:37:32;;;;;;;3.30;3.00;;;;;;;;;;4983257;28;24409;-51
2021/08/10 06:40:07;;;;;;;3.20;2.90;;;;;;;;;;4980633;28;24832;-51
2021/08/10 06:42:32;;;;;;;3.20;2.90;;;;;;;;;;4978442;28;24444;-52
2021/08/10 06:44:58;;;;;;;3.25;2.97;;;;;;;;;;4985144;28;24985;-51
2021/08/10 06:47:24;;;;;;;3.70;3.10;;;;;;;;;;4986511;28;24452;-52
2021/08/10 06:49:49;;;;;;;3.43;3.10;;;;;;;;;;4985251;28;24823;-51
2021/08/10 06:52:14;;;;;;;3.23;2.93;;;;;;;;;;4985024;28;24440;-52
2021/08/10 06:54:39;;;;;;;3.07;2.87;;;;;;;;;;4984557;28;24437;-52
2021/08/10 06:57:05;;;;;;;5.07;3.08;;;;;;;;;;4987096;28;24815;-52
2021/08/10 06:59:31;;;;;;;3.50;2.90;;;;;;;;;;4987304;28;24432;-52
2021/08/10 07:01:56;;;;;;;2.90;2.70;;;;;;;;;;4987264;28;24981;-53
2021/08/10 07:04:21;;;;;;;3.70;3.20;;;;;;;;;;4985863;28;24512;-50
2021/08/10 07:06:55;;;;;;;3.43;2.70;;;;;;;;;;4986324;28;24780;-51
2021/08/10 07:09:22;;;;;;;3.20;2.90;;;;;;;;;;4988094;28;24479;-50
2021/08/10 07:11:47;;;;;;;7.30;3.20;;;;;;;;;;4989598;28;24444;-51
2021/08/10 07:14:13;;;;;;;3.60;2.70;;;;;;;;;;4989957;28;24413;-51
2021/08/10 07:16:41;;;;;;;4.13;3.00;;;;;;;;;;4990675;28;24393;-50
2021/08/10 07:19:06;;;;;;;3.30;2.78;;;;;;;;;;4990568;28;24447;-50
2021/08/10 07:21:31;;;;;;;5.13;3.10;;;;;;;;;;4990199;28;24472;-50
2021/08/10 07:23:56;;;;;;;3.10;2.90;;;;;;;;;;4990804;28;24859;-50
2021/08/10 07:26:22;;;;;;;2.55;2.35;;;;;;;;;;4990819;28;24397;-51
2021/08/10 07:28:47;;;;;;;3.20;2.90;;;;;;;;;;4990631;28;25009;-51
2021/08/10 07:31:12;;;;;;;3.53;2.40;;;;;;;;;;4990828;28;24377;-52
2021/08/10 07:33:37;;;;;;;3.90;3.50;;;;;;;;;;4990791;28;25021;-53
2021/08/10 07:36:03;;;;;;;3.17;2.97;;;;;;;;;;4990625;28;24393;-51
2021/08/10 07:38:28;;;;;;;3.30;3.00;;;;;;;;;;4990475;28;24413;-52
2021/08/10 07:40:53;;;;;;;3.10;2.90;;;;;;;;;;4990359;28;24737;-52
2021/08/10 07:43:18;;;;;;;3.27;2.97;;;;;;;;;;4990810;28;24530;-51
2021/08/10 07:45:43;;;;;;;2.80;2.60;;;;;;;;;;4990229;28;24396;-50
2021/08/10 07:48:09;;;;;;;3.10;2.90;;;;;;;;;;4990785;28;24900;-50
2021/08/10 07:50:34;;;;;;;3.00;2.80;;;;;;;;;;4990252;28;24398;-50
2021/08/10 07:52:59;;;;;;;3.10;2.80;;;;;;;;;;4990164;28;24433;-51
2021/08/10 07:55:24;;;;;;;3.60;2.77;;;;;;;;;;4990276;28;24401;-52
2021/08/10 07:57:49;;;;;;;2.70;2.50;;;;;;;;;;4990219;28;24748;-52
2021/08/10 08:00:15;;;;;;;2.97;2.75;;;;;;;;;;4990093;28;24393;-51
2021/08/10 08:02:40;;;;;;;3.07;2.70;;;;;;;;;;4989928;28;24460;-52
2021/08/10 08:05:05;;;;;;;4.10;2.90;;;;;;;;;;4990078;28;24401;-51
2021/08/10 08:07:31;;;;;;;2.83;2.63;;;;;;;;;;4990056;28;24403;-52
2021/08/10 08:09:56;;;;;;;3.08;2.55;;;;;;;;;;4989579;28;24451;-52
2021/08/10 08:12:21;;;;;;;3.30;2.70;;;;;;;;;;4990004;28;24775;-52
2021/08/10 08:14:46;;;;;;;3.07;2.77;;;;;;;;;;4989797;28;24436;-51
2021/08/10 08:17:12;;;;;;;2.80;2.60;;;;;;;;;;4990242;28;24920;-50
2021/08/10 08:19:37;;;;;;;2.72;2.53;;;;;;;;;;4988864;28;24455;-51
2021/08/10 08:22:02;;;;;;;4.90;2.90;;;;;;;;;;4989365;28;24397;-52
2021/08/10 08:24:28;;;;;;;3.20;2.87;;;;;;;;;;4989725;28;24428;-52
2021/08/10 08:26:53;;;;;;;2.80;2.60;;;;;;;;;;4989582;28;24513;-52
2021/08/10 08:29:18;;;;;;;2.90;2.70;;;;;;;;;;4989987;28;24415;-52
2021/08/10 08:31:43;;;;;;;3.00;2.80;;;;;;;;;;4989191;28;25082;-52
2021/08/10 08:34:08;;;;;;;3.60;2.80;;;;;;;;;;4989600;28;24396;-52
2021/08/10 08:36:33;;;;;;;3.20;2.80;;;;;;;;;;4989435;28;24515;-53
2021/08/10 08:38:59;;;;;;;3.10;2.90;;;;;;;;;;4989432;28;24785;-53
2021/08/10 08:41:24;;;;;;;3.00;2.70;;;;;;;;;;4989201;28;24456;-52
2021/08/10 08:43:49;;;;;;;3.07;2.80;;;;;;;;;;4989583;28;24436;-53
2021/08/10 08:46:15;;;;;;;2.97;2.77;;;;;;;;;;4989357;28;24852;-52
2021/08/10 08:48:42;;;;;;;3.27;2.97;;;;;;;;;;4989185;28;24970;-52
2021/08/10 08:51:08;;;;;;;3.30;3.00;;;;;;;;;;4988931;28;24393;-51
2021/08/10 08:53:34;;;;;;;3.50;3.20;;;;;;;;;;4988791;28;24533;-51
2021/08/10 08:55:59;;;;;;;3.23;3.03;;;;;;;;;;4989314;28;24496;-52
2021/08/10 08:58:24;;;;;;;3.57;3.20;;;;;;;;;;4988736;28;24421;-52
2021/08/10 09:00:49;;;;;;;5.20;3.10;;;;;;;;;;4989225;28;24830;-51
2021/08/10 09:03:14;;;;;;;3.63;3.33;;;;;;;;;;4989118;28;24404;-50
2021/08/10 09:05:43;;;;;;;3.60;3.27;;;;;;;;;;4988961;28;24408;-52
2021/08/10 09:08:25;;;;;;;3.08;2.83;;;;;;;;;;4989077;28;24405;-52
2021/08/10 09:10:54;;;;;;;3.50;3.20;;;;;;;;;;4988764;28;24935;-52
2021/08/10 09:13:19;;;;;;;3.60;3.30;;;;;;;;;;4988905;28;24525;-52
2021/08/10 09:15:45;;;;;;;4.33;3.37;;;;;;;;;;4988713;28;24484;-52
2021/08/10 09:18:10;;;;;;;4.63;3.60;;;;;;;;;;4988740;28;24565;-51
2021/08/10 09:20:36;;;;;;;3.40;3.10;;;;;;;;;;4988507;28;24452;-52
2021/08/10 09:23:02;;;;;;;3.35;3.05;;;;;;;;;;4988223;28;24553;-52
2021/08/10 09:25:27;;;;;;;3.30;2.93;;;;;;;;;;4988866;28;24397;-53
2021/08/10 09:28:06;;;;;;;3.38;3.10;;;;;;;;;;4987868;28;24424;-53
2021/08/10 09:30:33;;;;;;;4.00;3.20;;;;;;;;;;4986103;28;24421;-52
2021/08/10 09:33:00;;;;;;;3.20;2.90;;;;;;;;;;4987211;28;25003;-52
2021/08/10 09:35:29;;;;;;;3.10;2.80;;;;;;;;;;4988393;28;24409;-52
2021/08/10 09:38:13;;;;;;;3.60;3.03;;;;;;;;;;4985538;28;25027;-52
2021/08/10 09:40:42;;;;;;;3.40;3.10;;;;;;;;;;4983230;28;24428;-52
2021/08/10 09:43:39;;;;;;;3.50;3.10;;;;;;;;;;4982697;28;24508;-52
2021/08/10 09:46:12;;;;;;;4.65;3.20;;;;;;;;;;4967233;28;24872;-52
2021/08/10 09:48:38;;;;;;;3.15;2.85;;;;;;;;;;4987128;28;24978;-52
2021/08/10 09:51:11;;;;;;;3.33;2.72;;;;;;;;;;4985581;28;24421;-53
2021/08/10 09:53:37;;;;;;;2.70;2.50;;;;;;;;;;4987812;28;25195;-52
2021/08/10 09:56:02;;;;;;;2.87;2.60;;;;;;;;;;4987991;28;24392;-52
2021/08/10 09:58:28;;;;;;;2.80;2.60;;;;;;;;;;4988249;28;24445;-52
2021/08/10 10:00:55;;;;;;;2.60;2.40;;;;;;;;;;4987919;28;24400;-54
2021/08/10 10:03:24;;;;;;;2.50;2.30;;;;;;;;;;4988358;28;24401;-54
2021/08/10 10:05:49;;;;;;;2.42;2.22;;;;;;;;;;4987921;28;24763;-53
2021/08/10 10:08:18;;;;;;;2.70;2.50;;;;;;;;;;4987882;28;24955;-53
2021/08/10 10:10:44;;;;;;;2.73;2.40;;;;;;;;;;4986416;28;24505;-53
2021/08/10 10:13:10;;;;;;;2.60;2.40;;;;;;;;;;4984339;28;25154;-53
2021/08/10 10:15:36;;;;;;;3.03;2.42;;;;;;;;;;4986583;28;24428;-53
2021/08/10 10:18:01;;;;;;;2.60;2.40;;;;;;;;;;4987332;28;24936;-51
2021/08/10 10:20:26;;;;;;;2.90;2.53;;;;;;;;;;4981418;28;24419;-52
2021/08/10 10:22:52;;;;;;;2.87;2.50;;;;;;;;;;4987035;28;24432;-51
2021/08/10 10:25:17;;;;;;;3.47;2.37;;;;;;;;;;4987117;28;24485;-53
2021/08/10 10:27:43;;;;;;;2.90;2.30;;;;;;;;;;4987191;28;24846;-53
2021/08/10 10:30:08;;;;;;;2.30;2.03;;;;;;;;;;4986335;28;24417;-51
2021/08/10 10:32:34;;;;;;;3.37;2.33;;;;;;;;;;4987079;28;24456;-52
2021/08/10 10:34:59;;;;;;;3.22;2.13;;;;;;;;;;4987415;28;25010;-51
2021/08/10 10:37:25;;;;;;;2.50;2.30;;;;;;;;;;4987513;28;24393;-52
2021/08/10 10:39:55;;;;;;;2.80;2.13;;;;;;;;;;4987065;28;24463;-51
2021/08/10 10:42:20;;;;;;;3.10;2.70;;;;;;;;;;4988250;28;24393;-52
2021/08/10 10:44:49;;;;;;;3.72;2.90;;;;;;;;;;4990944;28;24828;-52
2021/08/10 10:47:21;;;;;;;4.57;2.90;;;;;;;;;;4991005;28;24417;-52
2021/08/10 10:49:47;;;;;;;2.85;2.65;;;;;;;;;;4990803;28;25301;-51
2021/08/10 10:52:15;;;;;;;3.20;2.58;;;;;;;;;;4990857;28;24444;-51
2021/08/10 10:54:44;;;;;;;4.03;2.42;;;;;;;;;;4990060;28;24526;-50
2021/08/10 10:57:29;;;;;;;3.33;2.60;;;;;;;;;;4990388;28;21150;-51
2021/08/10 10:59:55;;;;;;;3.00;2.40;;;;;;;;;;4990737;28;24421;-51
2021/08/10 11:02:22;;;;;;;2.80;2.40;;;;;;;;;;4990719;28;24428;-51
2021/08/10 11:05:06;;;;;;;4.10;3.60;;;;;;;;;;4990096;28;24877;-52
2021/08/10 11:07:37;;;;;;;2.22;2.03;;;;;;;;;;4990897;28;24416;-52
2021/08/10 11:10:07;;;;;;;3.05;2.20;;;;;;;;;;4990332;28;24413;-51
2021/08/10 11:12:33;;;;;;;2.90;2.00;;;;;;;;;;4990715;28;24472;-52
2021/08/10 11:14:58;;;;;;;3.50;1.88;;;;;;;;;;4989938;28;24985;-51
2021/08/10 11:17:23;;;;;;;2.33;2.10;;;;;;;;;;4990256;28;24422;-51
2021/08/10 11:19:49;;;;;;;2.47;2.00;;;;;;;;;;4990769;28;24472;-51
2021/08/10 11:22:14;;;;;;;3.17;2.00;;;;;;;;;;4986498;28;24428;-51
2021/08/10 11:24:40;;;;;;;2.40;2.20;;;;;;;;;;4990235;28;24428;-51
2021/08/10 11:27:25;;;;;;;2.20;2.10;;;;;;;;;;4989831;28;24453;-52
2021/08/10 11:29:50;;;;;;;3.28;2.20;;;;;;;;;;4990002;28;24463;-51
2021/08/10 11:32:33;;;;;;;2.90;2.25;;;;;;;;;;4990312;28;25311;-51
2021/08/10 11:35:18;;;;;;;2.38;2.17;;;;;;;;;;4990062;28;25010;-51
2021/08/10 11:37:43;;;;;;;3.10;2.20;;;;;;;;;;4989161;28;24975;-50
2021/08/10 11:40:11;;;;;;;2.85;2.13;;;;;;;;;;4990147;28;24487;-51
2021/08/10 11:42:36;;;;;;;2.70;2.50;;;;;;;;;;4990446;28;24496;-52
2021/08/10 11:45:03;;;;;;;2.60;2.40;;;;;;;;;;4989674;28;24512;-52
2021/08/10 11:47:28;;;;;;;2.45;2.10;;;;;;;;;;4990410;28;24403;-51
2021/08/10 11:49:54;;;;;;;2.80;2.50;;;;;;;;;;4989786;28;24427;-52
2021/08/10 11:52:20;;;;;;;3.72;2.50;;;;;;;;;;4989604;28;24421;-51
2021/08/10 11:54:57;;;;;;;4.03;2.80;;;;;;;;;;4988381;28;24467;-51
2021/08/10 11:57:22;;;;;;;3.03;2.70;;;;;;;;;;4989097;28;24423;-51
2021/08/10 11:59:48;;;;;;;2.40;2.20;;;;;;;;;;4990253;28;24484;-51
2021/08/10 12:02:13;;;;;;;2.80;2.60;;;;;;;;;;4989571;28;25093;-51
2021/08/10 12:04:38;;;;;;;3.55;2.63;;;;;;;;;;4989801;28;24835;-51
2021/08/10 12:07:05;;;;;;;2.58;2.38;;;;;;;;;;4989207;28;24444;-52
2021/08/10 12:09:34;;;;;;;4.80;2.70;;;;;;;;;;4989815;28;24440;-51
2021/08/10 12:12:00;;;;;;;2.50;2.30;;;;;;;;;;4989937;28;24425;-51
2021/08/10 12:14:26;;;;;;;3.40;2.20;;;;;;;;;;4989854;28;24459;-51
2021/08/10 12:16:58;;;;;;;3.08;2.53;;;;;;;;;;4989541;28;24424;-51
2021/08/10 12:19:35;;;;;;;3.97;2.70;;;;;;;;;;4989473;28;24400;-52
2021/08/10 12:22:01;;;;;;;2.70;2.42;;;;;;;;;;4989158;28;24479;-51
2021/08/10 12:24:27;;;;;;;2.70;2.30;;;;;;;;;;4989667;28;25070;-51
2021/08/10 12:26:52;;;;;;;2.60;2.40;;;;;;;;;;4989538;28;24417;-51
2021/08/10 12:29:18;;;;;;;3.85;2.40;;;;;;;;;;4989168;28;24483;-52
2021/08/10 12:31:43;;;;;;;3.87;2.70;;;;;;;;;;4989437;28;24463;-52
2021/08/10 12:34:08;;;;;;;2.60;2.40;;;;;;;;;;4989111;28;24828;-52
2021/08/10 12:36:47;;;;;;;3.17;2.50;;;;;;;;;;4989173;28;24448;-51
2021/08/10 12:39:12;;;;;;;2.50;2.30;;;;;;;;;;4989262;28;25002;-51
2021/08/10 12:41:37;;;;;;;3.15;2.70;;;;;;;;;;4989611;28;24393;-52
2021/08/10 12:44:02;;;;;;;2.57;2.27;;;;;;;;;;4989006;28;24822;-51
2021/08/10 12:46:29;;;;;;;3.00;2.70;;;;;;;;;;4989396;28;24471;-51
2021/08/10 12:49:01;;;;;;;2.72;2.50;;;;;;;;;;4988866;28;24425;-51
2021/08/10 12:51:27;;;;;;;2.45;2.08;;;;;;;;;;4988812;28;24414;-52
2021/08/10 12:53:54;;;;;;;2.70;2.50;;;;;;;;;;4989012;28;24423;-52
2021/08/10 12:56:19;;;;;;;3.13;2.33;;;;;;;;;;4989241;28;24486;-50
2021/08/10 12:58:51;;;;;;;2.42;2.22;;;;;;;;;;4988784;28;24827;-52
2021/08/10 13:01:16;;;;;;;2.70;2.50;;;;;;;;;;4988687;28;25172;-51
2021/08/10 13:03:41;;;;;;;3.63;2.43;;;;;;;;;;4988880;28;24504;-52
2021/08/10 13:06:07;;;;;;;2.10;2.00;;;;;;;;;;4988846;28;24389;-52
2021/08/10 13:08:32;;;;;;;2.70;2.30;;;;;;;;;;4988777;28;24975;-52
2021/08/10 13:10:58;;;;;;;2.60;2.40;;;;;;;;;;4988562;28;24963;-53
2021/08/10 13:13:24;;;;;;;3.20;2.60;;;;;;;;;;4988288;28;24421;-53
2021/08/10 13:15:51;;;;;;;2.50;2.30;;;;;;;;;;4988749;28;24396;-53
2021/08/10 13:18:17;;;;;;;2.75;2.30;;;;;;;;;;4988649;28;24473;-52
2021/08/10 13:20:54;;;;;;;2.58;2.20;;;;;;;;;;4988780;28;24467;-53
2021/08/10 13:23:20;;;;;;;3.50;2.70;;;;;;;;;;4988047;28;25351;-52
2021/08/10 13:25:53;;;;;;;2.77;2.30;;;;;;;;;;4988832;28;24412;-53
2021/08/10 13:28:19;;;;;;;3.85;2.42;;;;;;;;;;4988632;28;24459;-51
2021/08/10 13:30:44;;;;;;;3.47;2.63;;;;;;;;;;4988397;28;24487;-51
2021/08/10 13:33:22;;;;;;;2.50;2.30;;;;;;;;;;4988199;28;24428;-52
2021/08/10 13:35:48;;;;;;;2.60;2.40;;;;;;;;;;4988287;28;24409;-51
2021/08/10 13:38:14;;;;;;;2.90;2.10;;;;;;;;;;4988526;28;24413;-51
2021/08/10 13:40:40;;;;;;;2.50;2.20;;;;;;;;;;4988424;28;24449;-51
2021/08/10 13:43:08;;;;;;;2.20;2.00;;;;;;;;;;4988032;28;24401;-52
2021/08/10 13:45:40;;;;;;;2.30;2.10;;;;;;;;;;4988062;28;24417;-52
2021/08/10 13:48:08;;;;;;;2.50;2.30;;;;;;;;;;4988367;28;24396;-51
2021/08/10 13:50:33;;;;;;;2.90;2.28;;;;;;;;;;4988354;28;24431;-52
2021/08/10 13:52:59;;;;;;;5.50;2.80;;;;;;;;;;4988001;28;24487;-51
2021/08/10 13:55:24;;;;;;;2.60;2.40;;;;;;;;;;4987722;28;24428;-51
2021/08/10 13:57:49;;;;;;;3.10;2.55;;;;;;;;;;4988003;28;24764;-52
2021/08/10 14:00:14;;;;;;;2.50;2.30;;;;;;;;;;4988013;28;24436;-52
2021/08/10 14:02:43;;;;;;;3.00;2.70;;;;;;;;;;4988130;28;24954;-51
2021/08/10 14:05:09;;;;;;;2.63;2.40;;;;;;;;;;4988055;28;24552;-52
2021/08/10 14:07:34;;;;;;;2.40;2.20;;;;;;;;;;4987582;28;24523;-53
2021/08/10 14:10:00;;;;;;;2.50;2.30;;;;;;;;;;4987771;28;24877;-52
2021/08/10 14:12:25;;;;;;;3.47;2.50;;;;;;;;;;4987489;28;24424;-52
2021/08/10 14:14:50;;;;;;;2.60;2.20;;;;;;;;;;4988110;28;24397;-53
2021/08/10 14:17:15;;;;;;;2.63;2.00;;;;;;;;;;4986819;28;24431;-52
2021/08/10 14:19:40;;;;;;;4.07;2.85;;;;;;;;;;4987664;28;24392;-52
2021/08/10 14:22:05;;;;;;;3.20;2.90;;;;;;;;;;4987876;28;24401;-52
2021/08/10 14:24:31;;;;;;;3.60;2.50;;;;;;;;;;4987302;28;24393;-53
2021/08/10 14:26:56;;;;;;;2.63;2.20;;;;;;;;;;4987579;28;24444;-53
2021/08/10 14:29:21;;;;;;;6.03;2.60;;;;;;;;;;4987411;28;24465;-53
2021/08/10 14:31:46;;;;;;;2.83;2.50;;;;;;;;;;4987350;28;24768;-52
2021/08/10 14:34:11;;;;;;;2.60;2.37;;;;;;;;;;4987329;28;24394;-53
2021/08/10 14:36:36;;;;;;;2.80;2.60;;;;;;;;;;4987811;28;24504;-53
2021/08/10 14:39:02;;;;;;;3.75;2.70;;;;;;;;;;4987544;28;24950;-53